sensor_id;sensor_type;location;lat;lon;timestamp;P1;durP1;ratioP1;P2;durP2;ratioP2
32138;SDS011;18644;48.700;9.210;2023-04-23T00:01:59;2.58;;;1.48;;
32138;SDS011;18644;48.700;9.210;2023-04-23T00:04:27;4.10;;;1.30;;
32138;SDS011;18644;48.700;9.210;2023-04-23T00:06:58;1.77;;;1.20;;
32138;SDS011;18644;48.700;9.210;2023-04-23T00:09:26;2.40;;;1.40;;
32138;SDS011;18644;48.700;9.210;2023-04-23T00:11:57;1.92;;;1.70;;
32138;SDS011;18644;48.700;9.210;2023-04-23T00:14:25;1.77;;;1.25;;
32138;SDS011;18644;48.700;9.210;2023-04-23T00:16:52;2.65;;;1.67;;
32138;SDS011;18644;48.700;9.210;2023-04-23T00:19:21;1.30;;;1.20;;
32138;SDS011;18644;48.700;9.210;2023-04-23T00:21:48;3.33;;;1.50;;
32138;SDS011;18644;48.700;9.210;2023-04-23T00:24:16;1.90;;;1.30;;
32138;SDS011;18644;48.700;9.210;2023-04-23T00:26:42;1.33;;;1.23;;
32138;SDS011;18644;48.700;9.210;2023-04-23T00:29:09;2.20;;;1.40;;
32138;SDS011;18644;48.700;9.210;2023-04-23T00:31:36;1.40;;;1.30;;
32138;SDS011;18644;48.700;9.210;2023-04-23T00:34:03;2.22;;;1.40;;
32138;SDS011;18644;48.700;9.210;2023-04-23T00:36:32;2.13;;;1.45;;
32138;SDS011;18644;48.700;9.210;2023-04-23T00:38:59;3.03;;;1.20;;
32138;SDS011;18644;48.700;9.210;2023-04-23T00:41:27;1.73;;;1.40;;
32138;SDS011;18644;48.700;9.210;2023-04-23T00:43:54;2.25;;;1.58;;
32138;SDS011;18644;48.700;9.210;2023-04-23T00:46:23;1.38;;;1.20;;
32138;SDS011;18644;48.700;9.210;2023-04-23T00:48:51;1.83;;;1.15;;
32138;SDS011;18644;48.700;9.210;2023-04-23T00:51:19;2.58;;;1.45;;
32138;SDS011;18644;48.700;9.210;2023-04-23T00:53:49;1.65;;;1.10;;
32138;SDS011;18644;48.700;9.210;2023-04-23T00:56:17;1.38;;;1.10;;
32138;SDS011;18644;48.700;9.210;2023-04-23T00:58:44;2.08;;;1.52;;
32138;SDS011;18644;48.700;9.210;2023-04-23T01:01:11;1.52;;;1.17;;
32138;SDS011;18644;48.700;9.210;2023-04-23T01:03:39;1.98;;;1.05;;
32138;SDS011;18644;48.700;9.210;2023-04-23T01:06:07;0.98;;;0.88;;
32138;SDS011;18644;48.700;9.210;2023-04-23T01:08:34;1.27;;;1.08;;
32138;SDS011;18644;48.700;9.210;2023-04-23T01:11:03;1.90;;;0.90;;
32138;SDS011;18644;48.700;9.210;2023-04-23T01:13:30;2.28;;;1.02;;
32138;SDS011;18644;48.700;9.210;2023-04-23T01:15:58;1.45;;;1.10;;
32138;SDS011;18644;48.700;9.210;2023-04-23T01:18:25;4.65;;;1.65;;
32138;SDS011;18644;48.700;9.210;2023-04-23T01:20:54;1.13;;;0.82;;
32138;SDS011;18644;48.700;9.210;2023-04-23T01:23:22;1.08;;;0.90;;
32138;SDS011;18644;48.700;9.210;2023-04-23T01:25:51;2.70;;;1.05;;
32138;SDS011;18644;48.700;9.210;2023-04-23T01:28:18;2.78;;;1.05;;
32138;SDS011;18644;48.700;9.210;2023-04-23T01:30:46;1.85;;;1.10;;
32138;SDS011;18644;48.700;9.210;2023-04-23T01:33:13;0.88;;;0.88;;
32138;SDS011;18644;48.700;9.210;2023-04-23T01:35:41;1.70;;;0.93;;
32138;SDS011;18644;48.700;9.210;2023-04-23T01:38:09;0.98;;;0.80;;
32138;SDS011;18644;48.700;9.210;2023-04-23T01:40:38;2.08;;;0.90;;
32138;SDS011;18644;48.700;9.210;2023-04-23T01:43:05;4.00;;;1.05;;
32138;SDS011;18644;48.700;9.210;2023-04-23T01:45:32;1.90;;;1.00;;
32138;SDS011;18644;48.700;9.210;2023-04-23T01:47:59;1.23;;;1.05;;
32138;SDS011;18644;48.700;9.210;2023-04-23T01:50:26;1.17;;;0.95;;
32138;SDS011;18644;48.700;9.210;2023-04-23T01:52:53;0.95;;;0.85;;
32138;SDS011;18644;48.700;9.210;2023-04-23T01:55:20;1.92;;;1.05;;
32138;SDS011;18644;48.700;9.210;2023-04-23T01:57:50;1.20;;;1.00;;
32138;SDS011;18644;48.700;9.210;2023-04-23T02:00:17;2.67;;;0.90;;
32138;SDS011;18644;48.700;9.210;2023-04-23T02:02:44;2.33;;;1.00;;
32138;SDS011;18644;48.700;9.210;2023-04-23T02:05:12;1.10;;;0.90;;
32138;SDS011;18644;48.700;9.210;2023-04-23T02:07:42;1.10;;;1.00;;
32138;SDS011;18644;48.700;9.210;2023-04-23T02:10:11;1.35;;;0.80;;
32138;SDS011;18644;48.700;9.210;2023-04-23T02:12:38;0.90;;;0.85;;
32138;SDS011;18644;48.700;9.210;2023-04-23T02:15:07;1.90;;;1.20;;
32138;SDS011;18644;48.700;9.210;2023-04-23T02:17:36;0.98;;;0.90;;
32138;SDS011;18644;48.700;9.210;2023-04-23T02:20:04;1.50;;;1.08;;
32138;SDS011;18644;48.700;9.210;2023-04-23T02:22:33;0.93;;;0.90;;
32138;SDS011;18644;48.700;9.210;2023-04-23T02:25:02;2.20;;;1.00;;
32138;SDS011;18644;48.700;9.210;2023-04-23T02:27:31;0.80;;;0.70;;
32138;SDS011;18644;48.700;9.210;2023-04-23T02:29:57;0.90;;;0.90;;
32138;SDS011;18644;48.700;9.210;2023-04-23T02:32:26;5.30;;;0.90;;
32138;SDS011;18644;48.700;9.210;2023-04-23T02:34:53;1.48;;;0.90;;
32138;SDS011;18644;48.700;9.210;2023-04-23T02:37:20;1.90;;;1.20;;
32138;SDS011;18644;48.700;9.210;2023-04-23T02:39:47;0.93;;;0.90;;
32138;SDS011;18644;48.700;9.210;2023-04-23T02:42:14;0.88;;;0.88;;
32138;SDS011;18644;48.700;9.210;2023-04-23T02:44:41;0.95;;;0.75;;
32138;SDS011;18644;48.700;9.210;2023-04-23T02:47:08;2.28;;;0.90;;
32138;SDS011;18644;48.700;9.210;2023-04-23T02:49:36;1.17;;;0.80;;
32138;SDS011;18644;48.700;9.210;2023-04-23T02:52:03;1.08;;;0.70;;
32138;SDS011;18644;48.700;9.210;2023-04-23T02:54:30;0.90;;;0.90;;
32138;SDS011;18644;48.700;9.210;2023-04-23T02:56:57;3.00;;;0.90;;
32138;SDS011;18644;48.700;9.210;2023-04-23T02:59:24;1.17;;;0.90;;
32138;SDS011;18644;48.700;9.210;2023-04-23T03:01:51;2.63;;;1.00;;
32138;SDS011;18644;48.700;9.210;2023-04-23T03:04:18;0.70;;;0.70;;
32138;SDS011;18644;48.700;9.210;2023-04-23T03:06:46;0.80;;;0.73;;
32138;SDS011;18644;48.700;9.210;2023-04-23T03:09:14;1.73;;;0.70;;
32138;SDS011;18644;48.700;9.210;2023-04-23T03:11:40;0.77;;;0.60;;
32138;SDS011;18644;48.700;9.210;2023-04-23T03:14:07;0.95;;;0.90;;
32138;SDS011;18644;48.700;9.210;2023-04-23T03:16:34;0.60;;;0.60;;
32138;SDS011;18644;48.700;9.210;2023-04-23T03:19:02;0.90;;;0.90;;
32138;SDS011;18644;48.700;9.210;2023-04-23T03:21:28;0.65;;;0.60;;
32138;SDS011;18644;48.700;9.210;2023-04-23T03:23:57;0.82;;;0.70;;
32138;SDS011;18644;48.700;9.210;2023-04-23T03:26:23;0.80;;;0.70;;
32138;SDS011;18644;48.700;9.210;2023-04-23T03:28:50;1.00;;;0.90;;
32138;SDS011;18644;48.700;9.210;2023-04-23T03:31:17;0.98;;;0.88;;
32138;SDS011;18644;48.700;9.210;2023-04-23T03:33:44;0.98;;;0.93;;
32138;SDS011;18644;48.700;9.210;2023-04-23T03:36:11;0.65;;;0.65;;
32138;SDS011;18644;48.700;9.210;2023-04-23T03:38:39;0.85;;;0.75;;
32138;SDS011;18644;48.700;9.210;2023-04-23T03:41:07;0.90;;;0.80;;
32138;SDS011;18644;48.700;9.210;2023-04-23T03:43:34;0.93;;;0.70;;
32138;SDS011;18644;48.700;9.210;2023-04-23T03:46:01;1.33;;;1.08;;
32138;SDS011;18644;48.700;9.210;2023-04-23T03:48:28;0.75;;;0.75;;
32138;SDS011;18644;48.700;9.210;2023-04-23T03:50:56;0.80;;;0.80;;
32138;SDS011;18644;48.700;9.210;2023-04-23T03:53:23;1.02;;;0.63;;
32138;SDS011;18644;48.700;9.210;2023-04-23T03:55:50;1.75;;;1.15;;
32138;SDS011;18644;48.700;9.210;2023-04-23T03:58:18;1.45;;;1.20;;
32138;SDS011;18644;48.700;9.210;2023-04-23T04:00:45;0.70;;;0.70;;
32138;SDS011;18644;48.700;9.210;2023-04-23T04:03:12;1.13;;;0.95;;
32138;SDS011;18644;48.700;9.210;2023-04-23T04:05:39;1.02;;;0.80;;
32138;SDS011;18644;48.700;9.210;2023-04-23T04:08:05;0.80;;;0.80;;
32138;SDS011;18644;48.700;9.210;2023-04-23T04:10:32;0.88;;;0.82;;
32138;SDS011;18644;48.700;9.210;2023-04-23T04:12:59;1.85;;;0.90;;
32138;SDS011;18644;48.700;9.210;2023-04-23T04:15:27;1.45;;;0.95;;
32138;SDS011;18644;48.700;9.210;2023-04-23T04:17:56;1.27;;;1.02;;
32138;SDS011;18644;48.700;9.210;2023-04-23T04:20:23;1.85;;;1.20;;
32138;SDS011;18644;48.700;9.210;2023-04-23T04:22:53;0.90;;;0.88;;
32138;SDS011;18644;48.700;9.210;2023-04-23T04:25:20;0.70;;;0.70;;
32138;SDS011;18644;48.700;9.210;2023-04-23T04:27:48;0.80;;;0.80;;
32138;SDS011;18644;48.700;9.210;2023-04-23T04:30:15;0.90;;;0.90;;
32138;SDS011;18644;48.700;9.210;2023-04-23T04:32:43;1.15;;;0.95;;
32138;SDS011;18644;48.700;9.210;2023-04-23T04:35:11;0.90;;;0.90;;
32138;SDS011;18644;48.700;9.210;2023-04-23T04:37:38;2.55;;;0.80;;
32138;SDS011;18644;48.700;9.210;2023-04-23T04:40:06;0.70;;;0.70;;
32138;SDS011;18644;48.700;9.210;2023-04-23T04:42:35;0.93;;;0.88;;
32138;SDS011;18644;48.700;9.210;2023-04-23T04:45:03;0.70;;;0.70;;
32138;SDS011;18644;48.700;9.210;2023-04-23T04:47:32;0.68;;;0.68;;
32138;SDS011;18644;48.700;9.210;2023-04-23T04:50:01;1.02;;;0.90;;
32138;SDS011;18644;48.700;9.210;2023-04-23T04:52:28;1.70;;;0.80;;
32138;SDS011;18644;48.700;9.210;2023-04-23T04:54:55;0.70;;;0.70;;
32138;SDS011;18644;48.700;9.210;2023-04-23T04:57:22;0.85;;;0.70;;
32138;SDS011;18644;48.700;9.210;2023-04-23T04:59:49;0.60;;;0.60;;
32138;SDS011;18644;48.700;9.210;2023-04-23T05:02:16;0.60;;;0.60;;
32138;SDS011;18644;48.700;9.210;2023-04-23T05:04:44;1.38;;;0.70;;
32138;SDS011;18644;48.700;9.210;2023-04-23T05:07:12;1.63;;;1.00;;
32138;SDS011;18644;48.700;9.210;2023-04-23T05:09:39;0.68;;;0.68;;
32138;SDS011;18644;48.700;9.210;2023-04-23T05:12:06;0.82;;;0.60;;
32138;SDS011;18644;48.700;9.210;2023-04-23T05:14:32;0.50;;;0.50;;
32138;SDS011;18644;48.700;9.210;2023-04-23T05:16:59;0.70;;;0.70;;
32138;SDS011;18644;48.700;9.210;2023-04-23T05:19:26;0.52;;;0.52;;
32138;SDS011;18644;48.700;9.210;2023-04-23T05:21:53;2.50;;;0.85;;
32138;SDS011;18644;48.700;9.210;2023-04-23T05:24:21;1.25;;;1.00;;
32138;SDS011;18644;48.700;9.210;2023-04-23T05:26:48;0.60;;;0.60;;
32138;SDS011;18644;48.700;9.210;2023-04-23T05:29:15;0.60;;;0.60;;
32138;SDS011;18644;48.700;9.210;2023-04-23T05:31:43;0.75;;;0.60;;
32138;SDS011;18644;48.700;9.210;2023-04-23T05:34:11;0.73;;;0.73;;
32138;SDS011;18644;48.700;9.210;2023-04-23T05:36:37;0.70;;;0.70;;
32138;SDS011;18644;48.700;9.210;2023-04-23T05:39:05;0.90;;;0.70;;
32138;SDS011;18644;48.700;9.210;2023-04-23T05:41:34;0.57;;;0.57;;
32138;SDS011;18644;48.700;9.210;2023-04-23T05:44:00;0.77;;;0.63;;
32138;SDS011;18644;48.700;9.210;2023-04-23T05:46:28;0.52;;;0.52;;
32138;SDS011;18644;48.700;9.210;2023-04-23T05:48:55;1.60;;;0.80;;
32138;SDS011;18644;48.700;9.210;2023-04-23T05:51:21;1.20;;;0.82;;
32138;SDS011;18644;48.700;9.210;2023-04-23T05:53:48;1.10;;;0.63;;
32138;SDS011;18644;48.700;9.210;2023-04-23T05:56:15;1.08;;;0.88;;
32138;SDS011;18644;48.700;9.210;2023-04-23T05:58:43;0.80;;;0.70;;
32138;SDS011;18644;48.700;9.210;2023-04-23T06:01:10;0.77;;;0.68;;
32138;SDS011;18644;48.700;9.210;2023-04-23T06:03:37;1.35;;;0.60;;
32138;SDS011;18644;48.700;9.210;2023-04-23T06:06:09;0.73;;;0.70;;
32138;SDS011;18644;48.700;9.210;2023-04-23T06:08:36;0.73;;;0.70;;
32138;SDS011;18644;48.700;9.210;2023-04-23T06:11:03;0.70;;;0.60;;
32138;SDS011;18644;48.700;9.210;2023-04-23T06:13:30;0.60;;;0.60;;
32138;SDS011;18644;48.700;9.210;2023-04-23T06:15:59;0.85;;;0.70;;
32138;SDS011;18644;48.700;9.210;2023-04-23T06:18:26;0.65;;;0.65;;
32138;SDS011;18644;48.700;9.210;2023-04-23T06:20:52;0.98;;;0.70;;
32138;SDS011;18644;48.700;9.210;2023-04-23T06:23:21;0.85;;;0.60;;
32138;SDS011;18644;48.700;9.210;2023-04-23T06:25:48;1.48;;;0.75;;
32138;SDS011;18644;48.700;9.210;2023-04-23T06:28:15;1.92;;;0.57;;
32138;SDS011;18644;48.700;9.210;2023-04-23T06:30:42;0.52;;;0.52;;
32138;SDS011;18644;48.700;9.210;2023-04-23T06:33:10;0.88;;;0.75;;
32138;SDS011;18644;48.700;9.210;2023-04-23T06:35:37;1.48;;;0.57;;
32138;SDS011;18644;48.700;9.210;2023-04-23T06:38:04;0.60;;;0.60;;
32138;SDS011;18644;48.700;9.210;2023-04-23T06:40:31;0.63;;;0.60;;
32138;SDS011;18644;48.700;9.210;2023-04-23T06:42:58;1.08;;;0.80;;
32138;SDS011;18644;48.700;9.210;2023-04-23T06:45:28;0.90;;;0.60;;
32138;SDS011;18644;48.700;9.210;2023-04-23T06:47:55;0.43;;;0.43;;
32138;SDS011;18644;48.700;9.210;2023-04-23T06:50:24;0.57;;;0.57;;
32138;SDS011;18644;48.700;9.210;2023-04-23T06:52:51;0.60;;;0.60;;
32138;SDS011;18644;48.700;9.210;2023-04-23T06:55:20;0.57;;;0.57;;
32138;SDS011;18644;48.700;9.210;2023-04-23T06:57:50;0.50;;;0.50;;
32138;SDS011;18644;48.700;9.210;2023-04-23T07:00:17;1.13;;;0.70;;
32138;SDS011;18644;48.700;9.210;2023-04-23T07:02:44;0.70;;;0.70;;
32138;SDS011;18644;48.700;9.210;2023-04-23T07:05:11;0.60;;;0.50;;
32138;SDS011;18644;48.700;9.210;2023-04-23T07:07:40;0.47;;;0.47;;
32138;SDS011;18644;48.700;9.210;2023-04-23T07:10:07;0.60;;;0.60;;
32138;SDS011;18644;48.700;9.210;2023-04-23T07:12:36;0.50;;;0.50;;
32138;SDS011;18644;48.700;9.210;2023-04-23T07:15:03;0.47;;;0.40;;
32138;SDS011;18644;48.700;9.210;2023-04-23T07:17:32;0.40;;;0.40;;
32138;SDS011;18644;48.700;9.210;2023-04-23T07:20:00;0.70;;;0.50;;
32138;SDS011;18644;48.700;9.210;2023-04-23T07:22:30;0.93;;;0.60;;
32138;SDS011;18644;48.700;9.210;2023-04-23T07:24:58;0.60;;;0.60;;
32138;SDS011;18644;48.700;9.210;2023-04-23T07:27:25;0.50;;;0.50;;
32138;SDS011;18644;48.700;9.210;2023-04-23T07:29:52;0.40;;;0.40;;
32138;SDS011;18644;48.700;9.210;2023-04-23T07:32:19;1.13;;;0.57;;
32138;SDS011;18644;48.700;9.210;2023-04-23T07:34:47;0.50;;;0.45;;
32138;SDS011;18644;48.700;9.210;2023-04-23T07:37:15;0.40;;;0.40;;
32138;SDS011;18644;48.700;9.210;2023-04-23T07:39:42;0.57;;;0.57;;
32138;SDS011;18644;48.700;9.210;2023-04-23T07:42:10;0.50;;;0.50;;
32138;SDS011;18644;48.700;9.210;2023-04-23T07:44:37;0.60;;;0.50;;
32138;SDS011;18644;48.700;9.210;2023-04-23T07:47:04;0.50;;;0.50;;
32138;SDS011;18644;48.700;9.210;2023-04-23T07:49:30;0.55;;;0.55;;
32138;SDS011;18644;48.700;9.210;2023-04-23T07:51:57;0.40;;;0.40;;
32138;SDS011;18644;48.700;9.210;2023-04-23T07:54:24;1.02;;;0.70;;
32138;SDS011;18644;48.700;9.210;2023-04-23T07:56:51;0.57;;;0.57;;
32138;SDS011;18644;48.700;9.210;2023-04-23T07:59:19;0.60;;;0.60;;
32138;SDS011;18644;48.700;9.210;2023-04-23T08:01:46;0.60;;;0.60;;
32138;SDS011;18644;48.700;9.210;2023-04-23T08:04:13;0.52;;;0.52;;
32138;SDS011;18644;48.700;9.210;2023-04-23T08:06:40;0.73;;;0.50;;
32138;SDS011;18644;48.700;9.210;2023-04-23T08:09:09;0.80;;;0.50;;
32138;SDS011;18644;48.700;9.210;2023-04-23T08:11:42;0.75;;;0.52;;
32138;SDS011;18644;48.700;9.210;2023-04-23T08:14:23;2.97;;;0.70;;
32138;SDS011;18644;48.700;9.210;2023-04-23T08:16:50;0.60;;;0.60;;
32138;SDS011;18644;48.700;9.210;2023-04-23T08:19:16;1.25;;;0.75;;
32138;SDS011;18644;48.700;9.210;2023-04-23T08:21:43;0.70;;;0.70;;
32138;SDS011;18644;48.700;9.210;2023-04-23T08:24:10;0.50;;;0.50;;
32138;SDS011;18644;48.700;9.210;2023-04-23T08:26:37;0.93;;;0.60;;
32138;SDS011;18644;48.700;9.210;2023-04-23T08:29:04;1.60;;;0.70;;
32138;SDS011;18644;48.700;9.210;2023-04-23T08:31:34;0.90;;;0.73;;
32138;SDS011;18644;48.700;9.210;2023-04-23T08:34:01;0.70;;;0.70;;
32138;SDS011;18644;48.700;9.210;2023-04-23T08:36:29;1.40;;;0.95;;
32138;SDS011;18644;48.700;9.210;2023-04-23T08:38:56;0.93;;;0.68;;
32138;SDS011;18644;48.700;9.210;2023-04-23T08:41:24;0.52;;;0.52;;
32138;SDS011;18644;48.700;9.210;2023-04-23T08:44:00;0.98;;;0.60;;
32138;SDS011;18644;48.700;9.210;2023-04-23T08:46:37;0.52;;;0.52;;
32138;SDS011;18644;48.700;9.210;2023-04-23T08:49:08;0.50;;;0.50;;
32138;SDS011;18644;48.700;9.210;2023-04-23T08:51:41;2.63;;;0.60;;
32138;SDS011;18644;48.700;9.210;2023-04-23T08:54:14;0.30;;;0.30;;
32138;SDS011;18644;48.700;9.210;2023-04-23T08:56:47;0.57;;;0.57;;
32138;SDS011;18644;48.700;9.210;2023-04-23T08:59:17;1.60;;;0.60;;
32138;SDS011;18644;48.700;9.210;2023-04-23T09:01:46;0.93;;;0.50;;
32138;SDS011;18644;48.700;9.210;2023-04-23T09:04:14;0.60;;;0.60;;
32138;SDS011;18644;48.700;9.210;2023-04-23T09:06:43;1.13;;;0.60;;
32138;SDS011;18644;48.700;9.210;2023-04-23T09:09:10;0.73;;;0.60;;
32138;SDS011;18644;48.700;9.210;2023-04-23T09:11:41;0.65;;;0.65;;
32138;SDS011;18644;48.700;9.210;2023-04-23T09:14:08;0.50;;;0.50;;
32138;SDS011;18644;48.700;9.210;2023-04-23T09:16:46;0.63;;;0.40;;
32138;SDS011;18644;48.700;9.210;2023-04-23T09:19:13;0.60;;;0.50;;
32138;SDS011;18644;48.700;9.210;2023-04-23T09:21:40;0.52;;;0.50;;
32138;SDS011;18644;48.700;9.210;2023-04-23T09:24:09;2.58;;;0.50;;
32138;SDS011;18644;48.700;9.210;2023-04-23T09:26:42;0.98;;;0.50;;
32138;SDS011;18644;48.700;9.210;2023-04-23T09:29:11;0.60;;;0.60;;
32138;SDS011;18644;48.700;9.210;2023-04-23T09:32:04;0.50;;;0.50;;
32138;SDS011;18644;48.700;9.210;2023-04-23T09:34:41;0.45;;;0.45;;
32138;SDS011;18644;48.700;9.210;2023-04-23T09:37:09;0.70;;;0.70;;
32138;SDS011;18644;48.700;9.210;2023-04-23T09:39:37;0.40;;;0.40;;
32138;SDS011;18644;48.700;9.210;2023-04-23T09:42:04;2.78;;;0.60;;
32138;SDS011;18644;48.700;9.210;2023-04-23T09:44:33;0.45;;;0.40;;
32138;SDS011;18644;48.700;9.210;2023-04-23T09:47:08;0.40;;;0.40;;
32138;SDS011;18644;48.700;9.210;2023-04-23T09:49:47;0.38;;;0.38;;
32138;SDS011;18644;48.700;9.210;2023-04-23T09:52:16;0.50;;;0.50;;
32138;SDS011;18644;48.700;9.210;2023-04-23T09:54:43;0.50;;;0.50;;
32138;SDS011;18644;48.700;9.210;2023-04-23T09:57:11;1.33;;;0.57;;
32138;SDS011;18644;48.700;9.210;2023-04-23T09:59:38;0.57;;;0.57;;
32138;SDS011;18644;48.700;9.210;2023-04-23T10:02:06;0.50;;;0.50;;
32138;SDS011;18644;48.700;9.210;2023-04-23T10:04:36;0.30;;;0.30;;
32138;SDS011;18644;48.700;9.210;2023-04-23T10:07:06;0.50;;;0.50;;
32138;SDS011;18644;48.700;9.210;2023-04-23T10:09:37;0.52;;;0.50;;
32138;SDS011;18644;48.700;9.210;2023-04-23T10:12:06;3.67;;;0.50;;
32138;SDS011;18644;48.700;9.210;2023-04-23T10:14:34;0.80;;;0.57;;
32138;SDS011;18644;48.700;9.210;2023-04-23T10:17:04;0.50;;;0.40;;
32138;SDS011;18644;48.700;9.210;2023-04-23T10:19:34;0.60;;;0.60;;
32138;SDS011;18644;48.700;9.210;2023-04-23T10:22:05;0.50;;;0.50;;
32138;SDS011;18644;48.700;9.210;2023-04-23T10:24:37;0.50;;;0.50;;
32138;SDS011;18644;48.700;9.210;2023-04-23T10:27:09;0.30;;;0.30;;
32138;SDS011;18644;48.700;9.210;2023-04-23T10:29:38;0.93;;;0.50;;
32138;SDS011;18644;48.700;9.210;2023-04-23T10:32:07;1.15;;;0.50;;
32138;SDS011;18644;48.700;9.210;2023-04-23T10:34:35;0.88;;;0.70;;
32138;SDS011;18644;48.700;9.210;2023-04-23T10:37:02;0.50;;;0.40;;
32138;SDS011;18644;48.700;9.210;2023-04-23T10:39:29;0.40;;;0.40;;
32138;SDS011;18644;48.700;9.210;2023-04-23T10:41:59;1.48;;;0.88;;
32138;SDS011;18644;48.700;9.210;2023-04-23T10:44:33;1.05;;;0.60;;
32138;SDS011;18644;48.700;9.210;2023-04-23T10:47:03;0.73;;;0.50;;
32138;SDS011;18644;48.700;9.210;2023-04-23T10:49:32;2.55;;;0.60;;
32138;SDS011;18644;48.700;9.210;2023-04-23T10:52:01;1.20;;;0.50;;
32138;SDS011;18644;48.700;9.210;2023-04-23T10:54:30;2.03;;;0.82;;
32138;SDS011;18644;48.700;9.210;2023-04-23T10:57:00;1.05;;;0.55;;
32138;SDS011;18644;48.700;9.210;2023-04-23T10:59:29;0.55;;;0.55;;
32138;SDS011;18644;48.700;9.210;2023-04-23T11:02:00;0.85;;;0.82;;
32138;SDS011;18644;48.700;9.210;2023-04-23T11:04:32;0.57;;;0.57;;
32138;SDS011;18644;48.700;9.210;2023-04-23T11:07:08;0.50;;;0.50;;
32138;SDS011;18644;48.700;9.210;2023-04-23T11:09:37;0.63;;;0.60;;
32138;SDS011;18644;48.700;9.210;2023-04-23T11:12:06;0.60;;;0.60;;
32138;SDS011;18644;48.700;9.210;2023-04-23T11:14:40;0.80;;;0.60;;
32138;SDS011;18644;48.700;9.210;2023-04-23T11:17:12;1.35;;;0.57;;
32138;SDS011;18644;48.700;9.210;2023-04-23T11:22:35;1.80;;;1.23;;
32138;SDS011;18644;48.700;9.210;2023-04-23T11:25:03;0.57;;;0.57;;
32138;SDS011;18644;48.700;9.210;2023-04-23T11:27:33;0.50;;;0.50;;
32138;SDS011;18644;48.700;9.210;2023-04-23T11:30:08;1.00;;;0.52;;
32138;SDS011;18644;48.700;9.210;2023-04-23T11:32:38;0.40;;;0.40;;
32138;SDS011;18644;48.700;9.210;2023-04-23T11:35:07;0.50;;;0.50;;
32138;SDS011;18644;48.700;9.210;2023-04-23T11:37:37;0.40;;;0.40;;
32138;SDS011;18644;48.700;9.210;2023-04-23T11:40:06;0.45;;;0.45;;
32138;SDS011;18644;48.700;9.210;2023-04-23T11:42:39;1.10;;;0.47;;
32138;SDS011;18644;48.700;9.210;2023-04-23T11:45:20;0.47;;;0.40;;
32138;SDS011;18644;48.700;9.210;2023-04-23T11:47:50;0.98;;;0.60;;
32138;SDS011;18644;48.700;9.210;2023-04-23T11:50:22;1.48;;;0.55;;
32138;SDS011;18644;48.700;9.210;2023-04-23T11:52:51;1.23;;;0.40;;
32138;SDS011;18644;48.700;9.210;2023-04-23T11:55:18;0.40;;;0.40;;
32138;SDS011;18644;48.700;9.210;2023-04-23T11:57:46;5.20;;;0.50;;
32138;SDS011;18644;48.700;9.210;2023-04-23T12:00:16;0.40;;;0.40;;
32138;SDS011;18644;48.700;9.210;2023-04-23T12:02:48;1.00;;;0.50;;
32138;SDS011;18644;48.700;9.210;2023-04-23T12:05:21;0.57;;;0.57;;
32138;SDS011;18644;48.700;9.210;2023-04-23T12:07:53;0.47;;;0.40;;
32138;SDS011;18644;48.700;9.210;2023-04-23T12:10:21;0.80;;;0.60;;
32138;SDS011;18644;48.700;9.210;2023-04-23T12:12:49;0.85;;;0.50;;
32138;SDS011;18644;48.700;9.210;2023-04-23T12:15:17;0.50;;;0.50;;
32138;SDS011;18644;48.700;9.210;2023-04-23T12:17:48;0.40;;;0.40;;
32138;SDS011;18644;48.700;9.210;2023-04-23T12:20:35;0.43;;;0.40;;
32138;SDS011;18644;48.700;9.210;2023-04-23T12:23:04;0.77;;;0.50;;
32138;SDS011;18644;48.700;9.210;2023-04-23T12:25:32;0.95;;;0.68;;
32138;SDS011;18644;48.700;9.210;2023-04-23T12:27:59;0.57;;;0.57;;
32138;SDS011;18644;48.700;9.210;2023-04-23T12:30:29;1.00;;;0.60;;
32138;SDS011;18644;48.700;9.210;2023-04-23T12:33:00;0.73;;;0.50;;
32138;SDS011;18644;48.700;9.210;2023-04-23T12:35:38;0.57;;;0.50;;
32138;SDS011;18644;48.700;9.210;2023-04-23T12:38:06;0.60;;;0.50;;
32138;SDS011;18644;48.700;9.210;2023-04-23T12:40:33;1.15;;;0.43;;
32138;SDS011;18644;48.700;9.210;2023-04-23T12:43:00;1.08;;;0.65;;
32138;SDS011;18644;48.700;9.210;2023-04-23T12:45:35;0.82;;;0.40;;
32138;SDS011;18644;48.700;9.210;2023-04-23T12:48:03;0.47;;;0.47;;
32138;SDS011;18644;48.700;9.210;2023-04-23T12:50:30;0.32;;;0.32;;
32138;SDS011;18644;48.700;9.210;2023-04-23T12:52:59;0.43;;;0.43;;
32138;SDS011;18644;48.700;9.210;2023-04-23T12:55:25;0.50;;;0.40;;
32138;SDS011;18644;48.700;9.210;2023-04-23T12:57:52;0.68;;;0.55;;
32138;SDS011;18644;48.700;9.210;2023-04-23T13:00:19;0.60;;;0.60;;
32138;SDS011;18644;48.700;9.210;2023-04-23T13:02:47;0.60;;;0.60;;
32138;SDS011;18644;48.700;9.210;2023-04-23T13:05:14;0.55;;;0.52;;
32138;SDS011;18644;48.700;9.210;2023-04-23T13:07:41;0.47;;;0.47;;
32138;SDS011;18644;48.700;9.210;2023-04-23T13:10:10;1.77;;;0.80;;
32138;SDS011;18644;48.700;9.210;2023-04-23T13:12:37;0.80;;;0.47;;
32138;SDS011;18644;48.700;9.210;2023-04-23T13:15:05;0.47;;;0.47;;
32138;SDS011;18644;48.700;9.210;2023-04-23T13:17:33;0.98;;;0.60;;
32138;SDS011;18644;48.700;9.210;2023-04-23T13:20:02;0.60;;;0.50;;
32138;SDS011;18644;48.700;9.210;2023-04-23T13:22:30;2.22;;;0.55;;
32138;SDS011;18644;48.700;9.210;2023-04-23T13:24:57;0.60;;;0.50;;
32138;SDS011;18644;48.700;9.210;2023-04-23T13:27:26;0.65;;;0.60;;
32138;SDS011;18644;48.700;9.210;2023-04-23T13:29:55;0.85;;;0.50;;
32138;SDS011;18644;48.700;9.210;2023-04-23T13:32:22;0.45;;;0.45;;
32138;SDS011;18644;48.700;9.210;2023-04-23T13:34:51;0.40;;;0.40;;
32138;SDS011;18644;48.700;9.210;2023-04-23T13:37:18;1.40;;;0.40;;
32138;SDS011;18644;48.700;9.210;2023-04-23T13:39:45;0.50;;;0.40;;
32138;SDS011;18644;48.700;9.210;2023-04-23T13:42:12;0.60;;;0.50;;
32138;SDS011;18644;48.700;9.210;2023-04-23T13:44:40;2.35;;;0.50;;
32138;SDS011;18644;48.700;9.210;2023-04-23T13:47:06;0.70;;;0.60;;
32138;SDS011;18644;48.700;9.210;2023-04-23T13:49:33;0.65;;;0.43;;
32138;SDS011;18644;48.700;9.210;2023-04-23T13:52:01;1.35;;;0.60;;
32138;SDS011;18644;48.700;9.210;2023-04-23T13:54:30;3.03;;;0.57;;
32138;SDS011;18644;48.700;9.210;2023-04-23T13:56:57;0.43;;;0.40;;
32138;SDS011;18644;48.700;9.210;2023-04-23T13:59:24;0.88;;;0.40;;
32138;SDS011;18644;48.700;9.210;2023-04-23T14:01:53;0.40;;;0.40;;
32138;SDS011;18644;48.700;9.210;2023-04-23T14:04:20;0.77;;;0.40;;
32138;SDS011;18644;48.700;9.210;2023-04-23T14:06:48;0.50;;;0.50;;
32138;SDS011;18644;48.700;9.210;2023-04-23T14:09:14;4.60;;;0.63;;
32138;SDS011;18644;48.700;9.210;2023-04-23T14:11:42;0.65;;;0.60;;
32138;SDS011;18644;48.700;9.210;2023-04-23T14:14:10;0.43;;;0.43;;
32138;SDS011;18644;48.700;9.210;2023-04-23T14:16:37;0.82;;;0.52;;
32138;SDS011;18644;48.700;9.210;2023-04-23T14:19:06;0.40;;;0.40;;
32138;SDS011;18644;48.700;9.210;2023-04-23T14:21:33;2.28;;;0.50;;
32138;SDS011;18644;48.700;9.210;2023-04-23T14:24:00;0.75;;;0.60;;
32138;SDS011;18644;48.700;9.210;2023-04-23T14:26:34;0.45;;;0.45;;
32138;SDS011;18644;48.700;9.210;2023-04-23T14:29:02;0.30;;;0.30;;
32138;SDS011;18644;48.700;9.210;2023-04-23T14:31:35;0.45;;;0.40;;
32138;SDS011;18644;48.700;9.210;2023-04-23T14:34:03;0.77;;;0.50;;
32138;SDS011;18644;48.700;9.210;2023-04-23T14:36:32;0.50;;;0.40;;
32138;SDS011;18644;48.700;9.210;2023-04-23T14:38:59;1.45;;;0.60;;
32138;SDS011;18644;48.700;9.210;2023-04-23T14:41:29;0.77;;;0.50;;
32138;SDS011;18644;48.700;9.210;2023-04-23T14:43:57;1.50;;;0.70;;
32138;SDS011;18644;48.700;9.210;2023-04-23T14:46:26;1.10;;;0.50;;
32138;SDS011;18644;48.700;9.210;2023-04-23T14:48:53;0.40;;;0.40;;
32138;SDS011;18644;48.700;9.210;2023-04-23T14:51:21;1.75;;;0.73;;
32138;SDS011;18644;48.700;9.210;2023-04-23T14:53:48;2.15;;;0.80;;
32138;SDS011;18644;48.700;9.210;2023-04-23T14:56:16;2.92;;;0.60;;
32138;SDS011;18644;48.700;9.210;2023-04-23T14:58:43;0.45;;;0.45;;